Terminal Aerodrome Forecast
Issued by NWS Dodge City, KS

Home | Current Version | Previous Version | Text Only | Print | Product List | Glossary On
Versions: 1 2 3 4 5 6 7 8 9 10 11 12 13 14 15 16 17 18 19 20
000
FTUS43 KDDC 261120
TAFDDC
TAF
KDDC 261120Z 2612/2712 01017G24KT P6SM OVC010
     FM261400 01012G22KT P6SM BKN007
     FM262100 35011KT 4SM -SN OVC005=

USA.gov is the U.S. government's official web portal to all federal, state and local government web resources and services.